Angola, LA

11:12 AM CDT on July 23, 2014 (GMT -0500)
False River (KHZR) Elev 39 ft | 30.72 °N, 91.48 °W | Change Station

Current weather conditions updated 17 minutes ago

Clear
Clear
82 °F
Feels Like 87 °F
N
6
Wind Variable Wind from North

Today is forecast to be nearly the same temperature as yesterday. Partly cloudy with a stray thunderstorm.

Today
High -- | Low -- °F
--% Chance of Precip.
Yesterday
High -- | Low -- °F
Precip. -- in
6:17 AM 8:07 PM
Waning Crescent, 10% visible
Pressure 30.06 in
Visibility 10.0 miles
Clouds Clear
Heat Index 87 °F
Dew Point 71 °F
Humidity 69%
Rainfall 0.01 in
Snow Depth Not available.
UV 10 out of 12
Pollen 2.20 out of 12
Air Quality Not available.
Flu Activity Not available.
METAR KHZR 231555Z AUTO 36005KT 10SM CLR 28/22 A3006 RMK AO2 T02800219

More Conditions Fewer Conditions

Pressure 30.06 in
Visibility 10.0 miles
Clouds Clear
Heat Index 87 °F
Dew Point 71 °F
Humidity 69%
Rainfall 0.01 in
Snow Depth Not available.
UV 10 out of 12
Pollen 2.20 out of 12
Air Quality Not available.
Flu Activity Not available.
METAR KHZR 231555Z AUTO 36005KT 10SM CLR 28/22 A3006 RMK AO2 T02800219

More Conditions Fewer Conditions

10-Day Weather Forecast

Almanac

Astronomy

Jul. 23, 2014 Rise Set
Actual Time 6:17 AM CDT 8:07 PM CDT
Civil Twilight 5:50 AM CDT 8:33 PM CDT
Nautical Twilight 5:18 AM CDT 9:06 PM CDT
Astronomical Twilight 4:44 AM CDT 9:40 PM CDT
Moon 3:35 AM CDT 5:37 PM CDT
Length of Visible Light 14h 42m
Length of Day
13h 49m
Tomorrow will be 1m 12s shorter.
Waning Crescent, 10% of the Moon is Illuminated
Today
Waning Crescent
Jul 26
New
Aug 3
First Quarter
Aug 10
Full
Aug 17
Last Quarter

Today's Extremes

State Highs State Lows

Community

WunderPhotos

Upload Photos

1,736,660 photos uploaded!

Nearby

Snow Depth

Station Depth Elevation
No new snow has been reported.

Earthquake Activity

City Distance Mag. Time & Date
No recent earthquake activity has been reported nearby.
Minimum magnitude displayed is 2.5.

Coastal Water Temperatures

Place Temperature
No Stations Reporting

Nearby Weather Stations

There are no personal weather stations in this area.